17°C Temp
-1°C Dewpoint
30% Humidity
Temperature
8 KM/H
5 MPH
4 KTS
120°
East South
East

Wind Speed
Clear
Conditions
Pressure 1011.85 (hPa) - 29.88 (in)
Visibility 6.0 (mi) - 9.7 (km)

Current Conditions
LIMJ
Location 7(km)
Metar :LIMJ 210920Z 12004KT 070V190 CAVOK 17/M01 Q1012
Sun 21st April 11:20 am

Airport
  Metar Aviation API Data Provided by https://www.checkwx.com/ PHP scripts by weather34.com ©2024